sensor_id;sensor_type;location;lat;lon;timestamp;pressure;altitude;pressure_sealevel;temperature;humidity
54918;BME280;40818;50.562;7.454;2023-04-21T00:02:19;97396.03;;;3.77;100.00
54918;BME280;40818;50.562;7.454;2023-04-21T00:12:22;97395.16;;;3.78;100.00
54918;BME280;40818;50.562;7.454;2023-04-21T00:22:28;97389.34;;;3.74;100.00
54918;BME280;40818;50.562;7.454;2023-04-21T00:32:31;97395.28;;;3.75;100.00
54918;BME280;40818;50.562;7.454;2023-04-21T00:42:40;97388.16;;;3.82;100.00
54918;BME280;40818;50.562;7.454;2023-04-21T00:52:44;97400.41;;;3.96;100.00
54918;BME280;40818;50.562;7.454;2023-04-21T01:02:51;97385.19;;;4.10;100.00
54918;BME280;40818;50.562;7.454;2023-04-21T01:12:54;97375.56;;;4.15;100.00
54918;BME280;40818;50.562;7.454;2023-04-21T01:23:01;97375.47;;;3.98;100.00
54918;BME280;40818;50.562;7.454;2023-04-21T01:33:05;97385.06;;;3.94;100.00
54918;BME280;40818;50.562;7.454;2023-04-21T01:43:11;97394.31;;;3.98;100.00
54918;BME280;40818;50.562;7.454;2023-04-21T01:53:15;97385.59;;;4.01;100.00
54918;BME280;40818;50.562;7.454;2023-04-21T02:03:21;97387.81;;;3.89;100.00
54918;BME280;40818;50.562;7.454;2023-04-21T02:13:24;97395.72;;;3.85;100.00
54918;BME280;40818;50.562;7.454;2023-04-21T02:23:30;97393.91;;;3.87;100.00
54918;BME280;40818;50.562;7.454;2023-04-21T02:33:34;97396.84;;;3.79;100.00
54918;BME280;40818;50.562;7.454;2023-04-21T02:43:40;97393.03;;;3.67;100.00
54918;BME280;40818;50.562;7.454;2023-04-21T02:53:43;97399.72;;;3.71;100.00
54918;BME280;40818;50.562;7.454;2023-04-21T03:03:50;97399.47;;;3.78;100.00
54918;BME280;40818;50.562;7.454;2023-04-21T03:13:53;97405.72;;;3.91;100.00
54918;BME280;40818;50.562;7.454;2023-04-21T03:23:59;97408.69;;;4.02;100.00
54918;BME280;40818;50.562;7.454;2023-04-21T03:34:03;97407.75;;;4.03;100.00
54918;BME280;40818;50.562;7.454;2023-04-21T03:44:09;97408.97;;;4.15;100.00
54918;BME280;40818;50.562;7.454;2023-04-21T03:54:13;97409.59;;;4.20;100.00
54918;BME280;40818;50.562;7.454;2023-04-21T04:04:19;97406.03;;;4.23;100.00
54918;BME280;40818;50.562;7.454;2023-04-21T04:14:22;97406.59;;;4.30;100.00
54918;BME280;40818;50.562;7.454;2023-04-21T04:24:31;97400.06;;;4.41;100.00
54918;BME280;40818;50.562;7.454;2023-04-21T04:34:35;97403.41;;;4.43;100.00
54918;BME280;40818;50.562;7.454;2023-04-21T04:44:42;97399.16;;;4.42;100.00
54918;BME280;40818;50.562;7.454;2023-04-21T04:54:45;97399.94;;;4.44;100.00
54918;BME280;40818;50.562;7.454;2023-04-21T05:04:51;97404.50;;;4.38;100.00
54918;BME280;40818;50.562;7.454;2023-04-21T05:14:55;97400.13;;;4.21;100.00
54918;BME280;40818;50.562;7.454;2023-04-21T05:25:01;97411.16;;;4.23;100.00
54918;BME280;40818;50.562;7.454;2023-04-21T05:35:05;97411.44;;;4.17;100.00
54918;BME280;40818;50.562;7.454;2023-04-21T05:45:11;97416.75;;;4.14;100.00
54918;BME280;40818;50.562;7.454;2023-04-21T05:55:15;97422.84;;;4.11;100.00
54918;BME280;40818;50.562;7.454;2023-04-21T06:05:21;97424.44;;;4.33;100.00
54918;BME280;40818;50.562;7.454;2023-04-21T06:15:25;97397.84;;;4.53;100.00
54918;BME280;40818;50.562;7.454;2023-04-21T06:25:31;97410.38;;;4.78;100.00
54918;BME280;40818;50.562;7.454;2023-04-21T06:35:34;97401.66;;;5.00;100.00
54918;BME280;40818;50.562;7.454;2023-04-21T06:45:40;97404.25;;;5.35;100.00
54918;BME280;40818;50.562;7.454;2023-04-21T06:55:44;97403.38;;;5.34;100.00
54918;BME280;40818;50.562;7.454;2023-04-21T07:05:50;97410.34;;;5.50;100.00
54918;BME280;40818;50.562;7.454;2023-04-21T07:15:54;97404.28;;;5.68;100.00
54918;BME280;40818;50.562;7.454;2023-04-21T07:26:00;97411.84;;;5.89;100.00
54918;BME280;40818;50.562;7.454;2023-04-21T07:36:04;97420.19;;;5.76;100.00
54918;BME280;40818;50.562;7.454;2023-04-21T07:46:11;97417.38;;;5.81;100.00
54918;BME280;40818;50.562;7.454;2023-04-21T07:56:14;97412.25;;;6.14;100.00
54918;BME280;40818;50.562;7.454;2023-04-21T08:06:21;97414.25;;;6.25;100.00
54918;BME280;40818;50.562;7.454;2023-04-21T08:16:24;97404.47;;;6.32;100.00
54918;BME280;40818;50.562;7.454;2023-04-21T08:26:30;97416.34;;;6.82;100.00
54918;BME280;40818;50.562;7.454;2023-04-21T08:36:33;97419.66;;;6.84;100.00
54918;BME280;40818;50.562;7.454;2023-04-21T08:46:40;97407.84;;;7.27;100.00
54918;BME280;40818;50.562;7.454;2023-04-21T08:56:46;97413.22;;;7.68;100.00
54918;BME280;40818;50.562;7.454;2023-04-21T09:06:53;97407.31;;;8.10;100.00
54918;BME280;40818;50.562;7.454;2023-04-21T09:16:59;97396.81;;;9.36;100.00
54918;BME280;40818;50.562;7.454;2023-04-21T09:27:05;97391.72;;;9.35;100.00
54918;BME280;40818;50.562;7.454;2023-04-21T09:37:13;97387.56;;;9.19;100.00
54918;BME280;40818;50.562;7.454;2023-04-21T09:47:20;97393.53;;;10.62;100.00
54918;BME280;40818;50.562;7.454;2023-04-21T09:57:25;97404.72;;;10.75;100.00
54918;BME280;40818;50.562;7.454;2023-04-21T10:07:31;97379.63;;;11.11;100.00
54918;BME280;40818;50.562;7.454;2023-04-21T10:17:35;97375.47;;;12.25;100.00
54918;BME280;40818;50.562;7.454;2023-04-21T10:27:41;97355.13;;;12.74;98.30
54918;BME280;40818;50.562;7.454;2023-04-21T10:37:47;97347.28;;;13.06;90.43
54918;BME280;40818;50.562;7.454;2023-04-21T10:47:54;97324.69;;;12.31;90.66
54918;BME280;40818;50.562;7.454;2023-04-21T10:58:01;97319.44;;;13.07;82.40
54918;BME280;40818;50.562;7.454;2023-04-21T11:08:09;97309.44;;;13.65;87.76
54918;BME280;40818;50.562;7.454;2023-04-21T11:18:13;97296.03;;;13.80;85.59
54918;BME280;40818;50.562;7.454;2023-04-21T11:28:22;97281.53;;;13.97;76.35
54918;BME280;40818;50.562;7.454;2023-04-21T11:38:26;97264.75;;;13.90;72.11
54918;BME280;40818;50.562;7.454;2023-04-21T11:48:32;97255.09;;;13.80;73.83
54918;BME280;40818;50.562;7.454;2023-04-21T11:58:35;97261.84;;;14.33;73.43
54918;BME280;40818;50.562;7.454;2023-04-21T12:08:42;97252.63;;;14.20;66.39
54918;BME280;40818;50.562;7.454;2023-04-21T12:18:47;97239.28;;;14.13;71.63
54918;BME280;40818;50.562;7.454;2023-04-21T12:28:53;97255.44;;;13.56;73.35
54918;BME280;40818;50.562;7.454;2023-04-21T12:38:57;97234.50;;;14.57;69.15
54918;BME280;40818;50.562;7.454;2023-04-21T12:49:03;97226.09;;;14.44;77.29
54918;BME280;40818;50.562;7.454;2023-04-21T12:59:07;97236.44;;;13.75;85.77
54918;BME280;40818;50.562;7.454;2023-04-21T13:09:13;97227.81;;;13.94;84.30
54918;BME280;40818;50.562;7.454;2023-04-21T13:19:17;97209.19;;;14.48;87.78
54918;BME280;40818;50.562;7.454;2023-04-21T13:29:23;97197.38;;;14.14;81.40
54918;BME280;40818;50.562;7.454;2023-04-21T13:39:29;97198.75;;;14.09;79.21
54918;BME280;40818;50.562;7.454;2023-04-21T13:49:35;97161.78;;;14.62;77.59
54918;BME280;40818;50.562;7.454;2023-04-21T13:59:39;97157.53;;;14.71;70.64
54918;BME280;40818;50.562;7.454;2023-04-21T14:09:45;97144.03;;;14.56;69.37
54918;BME280;40818;50.562;7.454;2023-04-21T14:19:48;97131.47;;;13.42;75.59
54918;BME280;40818;50.562;7.454;2023-04-21T14:29:54;97120.59;;;13.06;84.23
54918;BME280;40818;50.562;7.454;2023-04-21T14:39:58;97099.13;;;13.74;78.26
54918;BME280;40818;50.562;7.454;2023-04-21T14:50:07;97095.84;;;14.31;73.02
54918;BME280;40818;50.562;7.454;2023-04-21T15:00:11;97091.94;;;14.55;72.74
54918;BME280;40818;50.562;7.454;2023-04-21T15:10:18;97092.81;;;14.06;78.33
54918;BME280;40818;50.562;7.454;2023-04-21T15:20:21;97082.59;;;14.72;75.54
54918;BME280;40818;50.562;7.454;2023-04-21T15:30:27;97073.50;;;14.76;69.34
54918;BME280;40818;50.562;7.454;2023-04-21T15:40:31;97067.69;;;14.82;68.57
54918;BME280;40818;50.562;7.454;2023-04-21T15:50:37;97059.13;;;14.42;67.82
54918;BME280;40818;50.562;7.454;2023-04-21T16:00:41;97045.44;;;14.01;74.02
54918;BME280;40818;50.562;7.454;2023-04-21T16:10:48;97021.00;;;13.92;76.32
54918;BME280;40818;50.562;7.454;2023-04-21T16:20:51;97015.38;;;13.68;76.79
54918;BME280;40818;50.562;7.454;2023-04-21T16:30:57;97007.41;;;13.40;81.08
54918;BME280;40818;50.562;7.454;2023-04-21T16:41:01;97001.47;;;13.18;79.17
54918;BME280;40818;50.562;7.454;2023-04-21T16:51:07;97001.56;;;13.07;83.05
54918;BME280;40818;50.562;7.454;2023-04-21T17:01:11;96989.50;;;13.06;80.15
54918;BME280;40818;50.562;7.454;2023-04-21T17:11:17;96996.88;;;13.01;81.67
54918;BME280;40818;50.562;7.454;2023-04-21T17:21:21;96991.75;;;12.70;85.77
54918;BME280;40818;50.562;7.454;2023-04-21T17:31:27;97005.00;;;12.57;87.30
54918;BME280;40818;50.562;7.454;2023-04-21T17:41:32;97011.31;;;12.64;87.04
54918;BME280;40818;50.562;7.454;2023-04-21T17:51:39;97003.81;;;12.71;86.27
54918;BME280;40818;50.562;7.454;2023-04-21T18:01:42;97012.13;;;12.64;88.49
54918;BME280;40818;50.562;7.454;2023-04-21T18:11:48;97000.59;;;12.57;93.37
54918;BME280;40818;50.562;7.454;2023-04-21T18:21:51;97055.94;;;12.07;100.00
54918;BME280;40818;50.562;7.454;2023-04-21T18:31:58;97057.50;;;11.11;100.00
54918;BME280;40818;50.562;7.454;2023-04-21T18:42:02;97070.88;;;10.25;100.00
54918;BME280;40818;50.562;7.454;2023-04-21T18:52:08;97054.13;;;10.18;100.00
54918;BME280;40818;50.562;7.454;2023-04-21T19:02:12;97060.22;;;10.41;100.00
54918;BME280;40818;50.562;7.454;2023-04-21T19:12:18;97064.81;;;10.38;100.00
54918;BME280;40818;50.562;7.454;2023-04-21T19:22:22;97058.16;;;10.34;100.00
54918;BME280;40818;50.562;7.454;2023-04-21T19:32:29;97051.66;;;10.17;100.00
54918;BME280;40818;50.562;7.454;2023-04-21T19:42:33;97052.41;;;9.95;100.00
54918;BME280;40818;50.562;7.454;2023-04-21T19:52:39;97041.97;;;9.72;100.00
54918;BME280;40818;50.562;7.454;2023-04-21T20:02:43;97034.69;;;9.53;100.00
54918;BME280;40818;50.562;7.454;2023-04-21T20:12:49;97036.84;;;9.35;100.00
54918;BME280;40818;50.562;7.454;2023-04-21T20:22:52;97031.66;;;8.61;100.00
54918;BME280;40818;50.562;7.454;2023-04-21T20:32:58;97034.81;;;8.00;100.00
54918;BME280;40818;50.562;7.454;2023-04-21T20:43:02;97027.16;;;7.85;100.00
54918;BME280;40818;50.562;7.454;2023-04-21T20:53:09;97039.38;;;7.56;100.00
54918;BME280;40818;50.562;7.454;2023-04-21T21:03:12;97041.44;;;7.24;100.00
54918;BME280;40818;50.562;7.454;2023-04-21T21:13:19;97029.97;;;7.00;100.00
54918;BME280;40818;50.562;7.454;2023-04-21T21:23:22;97029.97;;;7.28;100.00
54918;BME280;40818;50.562;7.454;2023-04-21T21:33:28;97022.91;;;7.44;100.00
54918;BME280;40818;50.562;7.454;2023-04-21T21:43:32;97012.41;;;7.47;100.00
54918;BME280;40818;50.562;7.454;2023-04-21T21:53:38;97006.00;;;7.53;100.00
54918;BME280;40818;50.562;7.454;2023-04-21T22:03:41;97003.75;;;7.61;100.00
54918;BME280;40818;50.562;7.454;2023-04-21T22:13:48;97005.63;;;7.72;100.00
54918;BME280;40818;50.562;7.454;2023-04-21T22:23:52;97009.97;;;7.84;100.00
54918;BME280;40818;50.562;7.454;2023-04-21T22:33:58;97017.03;;;7.82;100.00
54918;BME280;40818;50.562;7.454;2023-04-21T22:44:01;97014.94;;;7.88;100.00
54918;BME280;40818;50.562;7.454;2023-04-21T22:54:07;97019.72;;;7.81;100.00
54918;BME280;40818;50.562;7.454;2023-04-21T23:04:11;97013.19;;;7.75;100.00
54918;BME280;40818;50.562;7.454;2023-04-21T23:14:17;97020.53;;;7.81;100.00
54918;BME280;40818;50.562;7.454;2023-04-21T23:24:20;97011.97;;;7.94;100.00
54918;BME280;40818;50.562;7.454;2023-04-21T23:34:26;97023.88;;;7.96;100.00
54918;BME280;40818;50.562;7.454;2023-04-21T23:44:30;97017.84;;;7.96;100.00
54918;BME280;40818;50.562;7.454;2023-04-21T23:54:39;97020.53;;;7.94;100.00
